Time;durP1;ratioP1;P1;durP2;ratioP2;P2;SDS_P1;SDS_P2;PMS_P1;PMS_P2;Temp;Humidity;BMP_temperature;BMP_pressure;BME280_temperature;BME280_humidity;BME280_pressure;Samples;Min_cycle;Max_cycle;Signal;HPM_P1;HPM_P2
2021/11/09 00:00:44;;;;;;;5.80;1.73;;;;;;;3.68;86.91;97070.41;5079504;28;20217;-68
2021/11/09 00:03:12;;;;;;;4.53;3.10;;;;;;;3.27;86.68;97077.03;5079293;28;20204;-68
2021/11/09 00:05:47;;;;;;;2.47;1.93;;;;;;;3.55;86.36;97070.59;5078536;28;20208;-68
2021/11/09 00:08:19;;;;;;;0.83;0.83;;;;;;;3.45;87.12;97075.69;5078911;28;20257;-68
2021/11/09 00:10:48;;;;;;;2.33;1.77;;;;;;;3.46;86.62;97079.09;5078217;28;20207;-68
2021/11/09 00:13:16;;;;;;;1.93;1.73;;;;;;;3.54;85.23;97071.53;5078495;28;20196;-68
2021/11/09 00:15:43;;;;;;;0.73;0.73;;;;;;;3.34;87.66;97072.22;5078280;28;20211;-68
2021/11/09 00:18:10;;;;;;;8.60;1.87;;;;;;;3.37;88.02;97071.97;5078594;28;20234;-68
2021/11/09 00:20:39;;;;;;;7.00;1.90;;;;;;;3.54;86.48;97074.16;5078992;28;20199;-68
2021/11/09 00:23:06;;;;;;;2.97;1.90;;;;;;;3.55;86.92;97070.59;5078524;28;20574;-68
2021/11/09 00:25:33;;;;;;;3.30;2.30;;;;;;;3.28;90.09;97070.03;5077195;28;20210;-68
2021/11/09 00:28:02;;;;;;;1.80;1.43;;;;;;;3.54;89.12;97080.22;5078680;28;20229;-68
2021/11/09 00:30:29;;;;;;;6.13;1.70;;;;;;;3.22;90.93;97078.31;5079840;28;20206;-68
2021/11/09 00:32:57;;;;;;;1.03;0.93;;;;;;;3.36;90.06;97078.97;5075288;28;20204;-69
2021/11/09 00:35:26;;;;;;;5.03;2.23;;;;;;;3.56;88.69;97082.69;5077729;28;20994;-68
2021/11/09 00:37:54;;;;;;;2.97;1.73;;;;;;;3.42;88.04;97091.53;5077972;28;20235;-68
2021/11/09 00:40:23;;;;;;;1.27;0.93;;;;;;;3.33;87.64;97086.16;5078541;28;20652;-68
2021/11/09 00:42:50;;;;;;;1.83;1.43;;;;;;;3.19;86.22;97088.94;5078001;28;20702;-67
2021/11/09 00:45:20;;;;;;;2.20;1.30;;;;;;;3.35;86.64;97089.50;5078753;28;20204;-68
2021/11/09 00:47:47;;;;;;;3.20;1.73;;;;;;;3.04;87.01;97084.84;5077104;28;20226;-67
2021/11/09 00:50:16;;;;;;;1.73;1.47;;;;;;;3.00;85.39;97093.81;5077400;28;20197;-68
2021/11/09 00:52:43;;;;;;;3.13;1.77;;;;;;;3.00;84.41;97083.41;5077936;28;20229;-68
2021/11/09 00:55:12;;;;;;;3.47;2.17;;;;;;;3.08;84.83;97084.53;5077927;28;20222;-68
2021/11/09 00:57:39;;;;;;;1.30;1.20;;;;;;;3.22;85.46;97091.31;5077005;28;20699;-68
2021/11/09 01:00:07;;;;;;;1.70;1.60;;;;;;;2.96;86.32;97084.59;5077967;28;20204;-68
2021/11/09 01:02:35;;;;;;;0.70;0.70;;;;;;;3.15;84.71;97093.53;5078114;28;20200;-67
2021/11/09 01:05:03;;;;;;;2.90;1.77;;;;;;;3.10;85.69;97097.44;5077483;28;20232;-68
2021/11/09 01:07:29;;;;;;;1.70;0.93;;;;;;;3.05;84.91;97096.94;5076979;28;20218;-68
2021/11/09 01:09:56;;;;;;;3.30;1.90;;;;;;;3.05;85.41;97094.31;5077065;28;20203;-68
2021/11/09 01:12:22;;;;;;;2.27;1.87;;;;;;;2.83;86.53;97094.22;5078079;28;20210;-68
2021/11/09 01:14:49;;;;;;;0.87;0.87;;;;;;;2.62;87.34;97090.56;5077482;28;20217;-68
2021/11/09 01:17:17;;;;;;;7.10;2.10;;;;;;;2.96;85.84;97081.16;5076744;28;20220;-69
2021/11/09 01:19:44;;;;;;;4.10;3.10;;;;;;;3.11;86.35;97083.47;5077786;28;20235;-68
2021/11/09 01:22:11;;;;;;;3.70;2.23;;;;;;;3.09;85.65;97077.53;5077395;28;20663;-68
2021/11/09 01:24:38;;;;;;;1.93;1.80;;;;;;;2.96;84.66;97081.16;5077498;28;20210;-68
2021/11/09 01:27:05;;;;;;;3.73;2.73;;;;;;;3.06;86.31;97082.97;5076704;28;20207;-68
2021/11/09 01:29:32;;;;;;;1.47;1.37;;;;;;;3.05;85.20;97078.72;5077227;28;20265;-68
2021/11/09 01:31:59;;;;;;;2.10;1.93;;;;;;;3.28;85.20;97073.47;5075618;28;20200;-68
2021/11/09 01:34:26;;;;;;;3.60;1.77;;;;;;;3.10;85.24;97081.81;5077141;28;20200;-67
2021/11/09 01:36:55;;;;;;;1.27;1.17;;;;;;;3.09;83.44;97077.53;5076449;28;20211;-68
2021/11/09 01:39:21;;;;;;;3.40;1.67;;;;;;;2.60;84.38;97089.00;5077424;28;20215;-68
2021/11/09 01:41:48;;;;;;;2.53;1.83;;;;;;;2.81;82.80;97084.84;5078118;28;20214;-68
2021/11/09 01:44:15;;;;;;;2.37;1.80;;;;;;;2.80;83.31;97084.03;5076911;28;21158;-68
2021/11/09 01:46:42;;;;;;;2.33;2.13;;;;;;;2.81;83.59;97093.47;5076283;28;20204;-68
2021/11/09 01:49:09;;;;;;;1.50;1.40;;;;;;;2.72;84.19;97088.13;5076810;28;20224;-67
2021/11/09 01:51:35;;;;;;;0.90;0.90;;;;;;;2.64;83.85;97093.03;5076927;28;20585;-67
2021/11/09 01:54:06;;;;;;;1.57;1.47;;;;;;;2.74;84.26;97094.06;5076938;28;20208;-68
2021/11/09 01:56:35;;;;;;;4.53;2.20;;;;;;;2.79;84.15;97084.97;5076649;28;20214;-67
2021/11/09 01:59:01;;;;;;;1.27;1.17;;;;;;;2.42;84.15;97091.09;5076539;28;20915;-68
2021/11/09 02:01:29;;;;;;;1.40;1.30;;;;;;;2.58;84.06;97091.72;5076415;28;21157;-68
2021/11/09 02:03:58;;;;;;;2.50;2.30;;;;;;;2.80;83.85;97091.00;5077003;28;20204;-68
2021/11/09 02:06:25;;;;;;;1.27;1.27;;;;;;;2.63;84.00;97093.97;5076203;28;20211;-67
2021/11/09 02:08:57;;;;;;;4.17;1.37;;;;;;;2.63;83.51;97081.78;5076583;28;20234;-68
2021/11/09 02:11:25;;;;;;;0.83;0.83;;;;;;;2.76;84.58;97086.94;5076687;28;20204;-68
2021/11/09 02:13:52;;;;;;;5.03;2.03;;;;;;;2.46;82.87;97089.94;5076891;28;20208;-68
2021/11/09 02:16:18;;;;;;;2.07;1.70;;;;;;;2.41;82.56;97089.44;5076286;28;20213;-68
2021/11/09 02:18:45;;;;;;;1.33;1.13;;;;;;;2.40;81.89;97088.72;5076106;28;20227;-68
2021/11/09 02:21:13;;;;;;;2.00;1.47;;;;;;;2.20;84.10;97100.53;5076417;28;20210;-67
2021/11/09 02:23:42;;;;;;;1.50;1.23;;;;;;;2.23;85.36;97109.84;5076992;28;20211;-68
2021/11/09 02:26:10;;;;;;;18.37;2.40;;;;;;;2.30;87.89;97104.13;5075817;28;20211;-67
2021/11/09 02:28:37;;;;;;;1.40;1.30;;;;;;;2.25;86.94;97103.59;5076559;28;20244;-68
2021/11/09 02:31:04;;;;;;;2.47;1.77;;;;;;;2.51;86.09;97106.06;5076866;28;20427;-68
2021/11/09 02:33:31;;;;;;;1.37;1.30;;;;;;;2.36;87.21;97113.28;5073073;28;20203;-68
2021/11/09 02:35:58;;;;;;;1.17;1.07;;;;;;;2.45;85.39;97105.66;5075829;28;20212;-68
2021/11/09 02:38:26;;;;;;;1.43;1.33;;;;;;;2.72;85.47;97114.13;5076541;28;20239;-67
2021/11/09 02:40:53;;;;;;;4.13;2.10;;;;;;;2.55;85.47;97109.31;5076255;28;21043;-67
2021/11/09 02:43:21;;;;;;;4.97;2.33;;;;;;;2.58;85.86;97104.72;5076335;28;20199;-67
2021/11/09 02:46:03;;;;;;;2.47;1.57;;;;;;;2.80;84.81;97104.00;5076497;28;20209;-68
2021/11/09 02:48:32;;;;;;;2.50;2.10;;;;;;;2.64;83.83;97101.66;5075780;28;20220;-68
2021/11/09 02:51:03;;;;;;;4.60;2.07;;;;;;;2.51;84.52;97106.06;5075883;28;21096;-68
2021/11/09 02:53:36;;;;;;;2.33;1.40;;;;;;;2.45;85.07;97103.06;5076464;28;20664;-68
2021/11/09 02:56:08;;;;;;;1.77;1.67;;;;;;;2.21;85.16;97106.53;5076620;28;20245;-68
2021/11/09 02:58:44;;;;;;;3.83;1.27;;;;;;;2.26;85.31;97100.06;5075844;28;20711;-68
2021/11/09 03:01:16;;;;;;;1.20;1.10;;;;;;;2.27;86.66;97103.53;5076118;28;20659;-68
2021/11/09 03:03:51;;;;;;;2.53;1.30;;;;;;;2.05;86.90;97101.56;5076958;28;20208;-68
2021/11/09 03:06:31;;;;;;;0.83;0.83;;;;;;;1.84;89.47;97104.78;5075042;28;20203;-68
2021/11/09 03:09:05;;;;;;;1.93;1.80;;;;;;;1.94;90.38;97105.84;5076134;28;20606;-68
2021/11/09 03:11:32;;;;;;;2.33;2.03;;;;;;;1.98;88.80;97102.91;5076384;28;20210;-68
2021/11/09 03:13:59;;;;;;;3.47;2.10;;;;;;;2.21;88.01;97106.53;5075702;28;20208;-68
2021/11/09 03:16:28;;;;;;;1.67;1.53;;;;;;;2.19;86.35;97113.59;5075291;28;20211;-68
2021/11/09 03:19:02;;;;;;;1.63;1.53;;;;;;;2.32;85.69;97114.41;5075733;28;20261;-68
2021/11/09 03:40:49;;;;;;;3.17;1.57;;;;;;;2.28;82.56;97107.78;5079385;28;20215;-68
2021/11/09 03:46:00;;;;;;;1.43;1.33;;;;;;;2.22;85.22;97110.81;5078691;28;20211;-68
2021/11/09 03:48:27;;;;;;;5.83;1.97;;;;;;;2.10;84.89;97117.69;5078742;28;20212;-67
2021/11/09 03:51:00;;;;;;;2.10;1.70;;;;;;;1.82;83.94;97114.47;5079421;28;20208;-68
2021/11/09 03:53:29;;;;;;;1.40;1.37;;;;;;;1.87;83.09;97108.00;5079112;28;20222;-67
2021/11/09 03:56:09;;;;;;;3.10;1.77;;;;;;;1.93;84.08;97117.97;5078487;28;20207;-67
2021/11/09 03:58:39;;;;;;;5.80;1.23;;;;;;;1.91;83.40;97108.66;5079231;28;20238;-67
2021/11/09 04:01:08;;;;;;;3.27;1.83;;;;;;;2.10;84.20;97109.03;5078983;28;20723;-68
2021/11/09 04:03:48;;;;;;;1.60;1.23;;;;;;;2.10;84.41;97106.44;5078527;28;21105;-67
2021/11/09 04:06:26;;;;;;;1.57;1.07;;;;;;;2.10;85.24;97109.03;5078416;28;20199;-68
2021/11/09 04:08:57;;;;;;;1.87;1.77;;;;;;;1.96;85.76;97109.13;5079228;28;20238;-70
2021/11/09 04:11:30;;;;;;;1.73;1.53;;;;;;;2.32;84.63;97096.22;5078359;28;20215;-68
2021/11/09 04:14:01;;;;;;;0.73;0.73;;;;;;;2.03;83.44;97098.22;5078560;28;20319;-68
2021/11/09 04:16:37;;;;;;;1.67;1.57;;;;;;;1.88;84.39;97106.25;5078820;28;20707;-68
2021/11/09 04:19:14;;;;;;;1.83;1.30;;;;;;;1.78;82.75;97112.16;5077926;28;20699;-68
2021/11/09 04:27:21;;;;;;;1.87;1.77;;;;;;;1.89;84.20;97110.50;5077832;28;20200;-68
2021/11/09 04:30:20;;;;;;;4.83;1.27;;;;;;;1.51;86.26;97114.81;5078625;28;20203;-67
2021/11/09 04:36:18;;;;;;;1.43;1.07;;;;;;;1.97;87.34;97116.88;5053259;28;20548;-68
2021/11/09 05:09:00;;;;;;;0.60;0.60;;;;;;;1.89;86.08;97124.31;5052895;28;20695;-68
2021/11/09 05:11:26;;;;;;;2.17;1.70;;;;;;;1.94;84.86;97131.81;5054038;28;20274;-69
2021/11/09 05:13:54;;;;;;;1.63;1.23;;;;;;;2.00;84.28;97131.41;5052765;28;20232;-68
2021/11/09 05:16:20;;;;;;;2.07;1.53;;;;;;;1.94;84.33;97130.03;5052571;28;21153;-67
2021/11/09 05:18:47;;;;;;;2.33;1.57;;;;;;;1.89;82.90;97133.91;5053843;28;20224;-69
2021/11/09 05:21:13;;;;;;;3.37;1.83;;;;;;;1.94;81.61;97135.25;5053043;28;20205;-68
2021/11/09 05:23:40;;;;;;;3.87;2.40;;;;;;;1.96;80.55;97133.38;5052736;28;20576;-68
2021/11/09 05:26:08;;;;;;;0.87;0.87;;;;;;;1.73;86.75;97132.41;5052625;28;20204;-69
2021/11/09 05:28:35;;;;;;;1.47;1.37;;;;;;;1.49;88.04;97129.69;5053155;28;20230;-68
2021/11/09 05:31:02;;;;;;;4.00;1.83;;;;;;;1.65;87.79;97130.31;5052793;28;20235;-68
2021/11/09 05:33:29;;;;;;;1.07;1.07;;;;;;;1.72;88.11;97134.19;5049937;28;20291;-68
2021/11/09 05:35:57;;;;;;;2.20;1.87;;;;;;;1.73;89.44;97129.81;5052432;28;20213;-68
2021/11/09 05:38:29;;;;;;;1.57;1.23;;;;;;;1.84;89.14;97128.16;5052560;28;20220;-68
2021/11/09 05:40:58;;;;;;;1.57;1.47;;;;;;;1.93;87.13;97122.34;5052675;28;20237;-69
2021/11/09 05:43:28;;;;;;;2.87;1.23;;;;;;;2.22;85.90;97123.81;5052735;28;20200;-68
2021/11/09 05:45:54;;;;;;;0.60;0.60;;;;;;;1.85;84.10;97114.25;5044546;28;20301;-68
2021/11/09 05:48:20;;;;;;;1.10;1.10;;;;;;;1.94;83.69;97113.63;5038823;28;20233;-68
2021/11/09 05:50:47;;;;;;;2.73;1.23;;;;;;;1.97;83.39;97118.59;5039730;28;20209;-68
2021/11/09 05:53:13;;;;;;;8.87;1.63;;;;;;;2.03;82.92;97115.59;5039396;28;20202;-68
2021/11/09 05:55:40;;;;;;;1.90;1.40;;;;;;;1.96;84.96;97116.94;5038096;28;20225;-69
2021/11/09 05:58:07;;;;;;;1.03;0.90;;;;;;;2.05;84.50;97117.16;5039025;28;20256;-68
2021/11/09 06:00:35;;;;;;;1.23;1.13;;;;;;;1.99;85.41;97120.16;5039484;28;20217;-68
2021/11/09 06:03:01;;;;;;;1.07;1.07;;;;;;;1.90;86.30;97123.41;5039209;28;20577;-68
2021/11/09 06:05:28;;;;;;;5.87;2.33;;;;;;;2.03;87.05;97128.59;5038563;28;20214;-68
2021/11/09 06:07:55;;;;;;;1.70;1.57;;;;;;;2.09;86.80;97123.81;5038794;28;20226;-68
2021/11/09 06:10:22;;;;;;;1.20;0.97;;;;;;;2.19;87.25;97129.19;5039278;28;21146;-69
2021/11/09 06:12:48;;;;;;;1.90;1.80;;;;;;;2.23;86.93;97130.66;5038854;28;20205;-68
2021/11/09 06:15:14;;;;;;;3.13;1.93;;;;;;;2.33;86.25;97136.88;5039274;28;20221;-68
2021/11/09 06:17:42;;;;;;;3.40;1.90;;;;;;;2.49;85.38;97138.34;5038015;28;20707;-68
2021/11/09 06:20:10;;;;;;;5.83;2.77;;;;;;;2.32;85.21;97135.22;5035785;28;20197;-68
2021/11/09 06:22:37;;;;;;;2.90;2.57;;;;;;;2.24;84.63;97132.31;5039069;28;20293;-69
2021/11/09 06:25:04;;;;;;;1.00;1.00;;;;;;;2.22;84.97;97129.00;5038671;28;20206;-68
2021/11/09 06:27:31;;;;;;;5.07;2.47;;;;;;;2.05;85.18;97129.31;5037848;28;20202;-69
2021/11/09 06:29:57;;;;;;;3.20;2.50;;;;;;;2.03;85.64;97139.00;5038669;28;20205;-69
2021/11/09 06:32:24;;;;;;;2.40;1.60;;;;;;;2.06;83.76;97138.78;5036124;28;20661;-68
2021/11/09 06:34:52;;;;;;;1.23;1.17;;;;;;;2.36;82.60;97147.91;5038350;28;20224;-68
2021/11/09 06:37:18;;;;;;;3.07;1.53;;;;;;;2.15;82.91;97153.75;5037584;28;20585;-69
2021/11/09 06:39:45;;;;;;;4.40;2.00;;;;;;;2.27;82.45;97147.72;5038495;28;20712;-69
2021/11/09 06:42:12;;;;;;;3.03;2.00;;;;;;;2.26;82.09;97151.25;5038408;28;20956;-69
2021/11/09 06:44:39;;;;;;;1.93;1.00;;;;;;;2.31;83.45;97154.38;5038226;28;20577;-70
2021/11/09 06:47:05;;;;;;;2.67;1.77;;;;;;;2.25;83.51;97158.22;5037696;28;20212;-69
2021/11/09 06:49:32;;;;;;;2.83;2.13;;;;;;;2.09;84.12;97155.00;5038415;28;20236;-70
2021/11/09 06:52:00;;;;;;;1.53;1.43;;;;;;;2.18;85.80;97156.16;5037932;28;20201;-70
2021/11/09 06:54:26;;;;;;;1.03;0.97;;;;;;;2.28;86.18;97165.81;5038194;28;20232;-69
2021/11/09 06:56:53;;;;;;;2.20;1.73;;;;;;;2.38;85.66;97171.22;5036590;28;20212;-69
2021/11/09 06:59:21;;;;;;;1.73;1.60;;;;;;;2.33;84.19;97168.94;5037912;28;20225;-69
2021/11/09 07:01:48;;;;;;;4.33;1.90;;;;;;;2.43;84.18;97170.81;5037954;28;20216;-69
2021/11/09 07:04:14;;;;;;;2.17;1.80;;;;;;;2.34;83.71;97177.56;5038079;28;20201;-68
2021/11/09 07:06:41;;;;;;;20.10;1.73;;;;;;;2.49;83.81;97179.94;5037373;28;20217;-70
2021/11/09 07:09:09;;;;;;;0.70;0.70;;;;;;;2.75;84.62;97185.03;5037468;28;20232;-69
2021/11/09 07:11:36;;;;;;;0.73;0.73;;;;;;;2.58;85.91;97185.38;5037834;28;20205;-69
2021/11/09 07:14:03;;;;;;;3.67;2.20;;;;;;;2.76;86.27;97189.28;5037983;28;20918;-69
2021/11/09 07:16:30;;;;;;;6.77;2.27;;;;;;;2.78;86.93;97197.81;5036652;28;20605;-69
2021/11/09 07:19:00;;;;;;;3.13;1.87;;;;;;;2.92;86.76;97194.25;5037624;28;20225;-70
2021/11/09 07:21:28;;;;;;;4.43;2.10;;;;;;;3.08;87.22;97193.88;5037774;28;20232;-69
2021/11/09 07:23:55;;;;;;;1.70;1.33;;;;;;;3.18;86.30;97199.25;5037203;28;20294;-70
2021/11/09 07:26:23;;;;;;;0.70;0.70;;;;;;;3.40;86.70;97191.56;5036961;28;20569;-69
2021/11/09 07:28:49;;;;;;;1.57;1.33;;;;;;;3.28;87.30;97190.66;5037115;28;20225;-69
2021/11/09 07:31:18;;;;;;;1.80;1.63;;;;;;;3.36;87.57;97205.75;5037554;28;20207;-69
2021/11/09 07:33:45;;;;;;;3.50;2.53;;;;;;;3.45;89.25;97199.88;5035071;28;20599;-70
2021/11/09 07:36:12;;;;;;;2.27;1.27;;;;;;;3.63;88.97;97204.63;5036231;28;20220;-68
2021/11/09 07:38:38;;;;;;;3.60;2.83;;;;;;;3.63;89.15;97199.41;5037718;28;20592;-69
2021/11/09 07:41:05;;;;;;;4.50;1.17;;;;;;;3.77;89.80;97196.63;5036890;28;20706;-69
2021/11/09 07:43:33;;;;;;;3.33;1.67;;;;;;;3.82;90.79;97197.94;5036568;28;21048;-69
2021/11/09 07:46:00;;;;;;;2.87;2.03;;;;;;;3.83;91.12;97197.00;5036397;28;20204;-69
2021/11/09 07:48:26;;;;;;;0.90;0.90;;;;;;;3.95;89.44;97197.88;5037235;28;20254;-69
2021/11/09 07:50:53;;;;;;;4.83;2.67;;;;;;;4.07;90.33;97200.38;5036960;28;20215;-68
2021/11/09 07:53:20;;;;;;;5.10;1.53;;;;;;;4.27;90.39;97189.28;5036844;28;20961;-68
2021/11/09 07:55:50;;;;;;;2.37;1.47;;;;;;;4.43;90.00;97193.22;5037097;28;20232;-69
2021/11/09 07:58:20;;;;;;;2.10;1.77;;;;;;;4.39;90.62;97191.78;5037045;28;20217;-68
2021/11/09 08:00:53;;;;;;;1.73;1.57;;;;;;;4.44;91.08;97189.66;5037028;28;20215;-68
2021/11/09 08:03:23;;;;;;;3.03;1.90;;;;;;;4.27;91.29;97191.88;5036811;28;20680;-69
2021/11/09 08:06:13;;;;;;;11.70;2.60;;;;;;;4.34;91.48;97183.50;5036543;28;20206;-69
2021/11/09 08:08:51;;;;;;;4.00;1.50;;;;;;;4.41;91.60;97194.28;5036123;28;20259;-69
2021/11/09 08:11:17;;;;;;;1.27;1.10;;;;;;;4.33;92.17;97191.44;5036592;28;20203;-68
2021/11/09 08:13:44;;;;;;;2.80;2.30;;;;;;;4.34;92.65;97190.47;5037270;28;20209;-69
2021/11/09 08:16:11;;;;;;;3.73;1.93;;;;;;;4.66;92.51;97199.28;5035783;28;20303;-69
2021/11/09 08:18:38;;;;;;;7.13;4.10;;;;;;;4.19;95.21;97191.66;5035084;28;21151;-71
2021/11/09 08:21:06;;;;;;;3.00;2.57;;;;;;;4.43;94.22;97188.00;5037037;28;20212;-69
2021/11/09 08:23:33;;;;;;;3.67;2.93;;;;;;;4.55;93.61;97186.25;5036780;28;20874;-68
2021/11/09 08:25:59;;;;;;;6.40;2.33;;;;;;;4.50;93.49;97188.38;5035909;28;20219;-69
2021/11/09 08:28:27;;;;;;;1.50;1.40;;;;;;;4.50;93.98;97183.16;5036526;28;20286;-69
2021/11/09 08:30:58;;;;;;;2.20;1.43;;;;;;;4.62;93.89;97187.41;5036726;28;20199;-69
2021/11/09 08:33:27;;;;;;;2.00;1.50;;;;;;;5.05;93.66;97183.97;5034358;28;20290;-69
2021/11/09 08:35:55;;;;;;;2.63;1.50;;;;;;;4.88;93.08;97187.06;5036187;28;20221;-69
2021/11/09 08:38:22;;;;;;;1.53;1.33;;;;;;;4.56;95.46;97193.13;5036837;28;20302;-68
2021/11/09 08:40:51;;;;;;;3.07;1.83;;;;;;;4.77;94.58;97191.47;5036269;28;20212;-69
2021/11/09 08:43:20;;;;;;;6.07;2.30;;;;;;;4.49;95.17;97187.53;5036495;28;20434;-69
2021/11/09 08:45:52;;;;;;;1.37;1.27;;;;;;;5.03;94.88;97183.25;5036193;28;20205;-69
2021/11/09 08:48:20;;;;;;;2.97;2.00;;;;;;;4.89;94.25;97186.13;5036352;28;20314;-69
2021/11/09 08:50:50;;;;;;;3.10;2.37;;;;;;;5.40;93.55;97181.97;5035844;28;20667;-69
2021/11/09 08:53:21;;;;;;;8.17;2.70;;;;;;;5.30;93.32;97184.50;5036219;28;20208;-69
2021/11/09 09:04:15;;;;;;;3.43;2.40;;;;;;;5.35;92.40;97187.59;5036576;28;21065;-69
2021/11/09 09:06:44;;;;;;;4.93;3.13;;;;;;;5.51;93.72;97180.16;5035659;28;20197;-69
2021/11/09 09:09:11;;;;;;;1.80;1.63;;;;;;;5.40;93.73;97176.75;5036135;28;20229;-69
2021/11/09 09:11:37;;;;;;;2.43;2.20;;;;;;;5.73;92.84;97180.09;5033835;28;20925;-69
2021/11/09 09:14:05;;;;;;;2.80;2.57;;;;;;;5.80;93.08;97183.91;5034682;28;20388;-68
2021/11/09 09:16:34;;;;;;;4.37;2.73;;;;;;;6.05;92.70;97187.81;5035051;28;20283;-69
2021/11/09 09:19:02;;;;;;;3.63;2.17;;;;;;;6.39;90.86;97191.91;5035384;28;20256;-69
2021/11/09 09:21:34;;;;;;;1.73;1.53;;;;;;;6.46;90.10;97189.63;5037479;28;20741;-68
2021/11/09 09:24:08;;;;;;;9.57;1.83;;;;;;;6.84;88.68;97188.84;5040733;28;20205;-69
2021/11/09 09:26:39;;;;;;;6.63;2.23;;;;;;;6.60;88.96;97190.09;5038985;28;20453;-69
2021/11/09 09:29:30;;;;;;;3.77;2.23;;;;;;;6.66;88.59;97194.81;5038319;28;20221;-69
2021/11/09 09:54:07;;;;;;;1.70;1.40;;;;;;;7.86;83.13;97201.50;5039328;28;20232;-70
2021/11/09 09:56:42;;;;;;;1.60;1.10;;;;;;;8.30;81.94;97190.47;5038769;28;20728;-69
2021/11/09 09:59:11;;;;;;;3.17;2.07;;;;;;;8.16;81.89;97198.78;5038982;28;20235;-69
2021/11/09 10:01:37;;;;;;;1.83;1.33;;;;;;;8.09;82.21;97184.53;5039093;28;20279;-69
2021/11/09 10:04:04;;;;;;;6.50;1.37;;;;;;;8.14;81.84;97195.47;5039093;28;20418;-69
2021/11/09 10:06:43;;;;;;;3.43;1.83;;;;;;;8.55;80.17;97196.81;5038403;28;20201;-69
2021/11/09 10:09:10;;;;;;;0.97;0.87;;;;;;;8.23;80.33;97199.91;5038782;28;20221;-68
2021/11/09 10:11:40;;;;;;;3.93;1.23;;;;;;;8.21;80.05;97194.78;5038734;28;20286;-68
2021/11/09 10:14:08;;;;;;;2.90;1.87;;;;;;;8.27;79.17;97194.22;5037346;28;20259;-69
2021/11/09 10:16:38;;;;;;;2.67;1.87;;;;;;;8.46;78.09;97191.56;5035890;28;20236;-68
2021/11/09 10:19:05;;;;;;;4.43;2.20;;;;;;;8.48;77.96;97197.50;5038178;28;20704;-70
2021/11/09 10:21:37;;;;;;;1.93;1.60;;;;;;;8.64;79.28;97195.97;5038662;28;20606;-68
2021/11/09 10:24:24;;;;;;;2.17;1.93;;;;;;;8.40;78.30;97186.03;5038008;28;20470;-68
2021/11/09 10:26:52;;;;;;;3.97;1.77;;;;;;;9.02;77.02;97190.56;5037544;28;20205;-69
2021/11/09 10:29:18;;;;;;;4.70;0.97;;;;;;;8.47;77.66;97192.41;5038518;28;20225;-69
2021/11/09 10:31:46;;;;;;;0.90;0.90;;;;;;;8.78;78.26;97186.78;5035642;28;20691;-69
2021/11/09 10:34:25;;;;;;;3.30;1.10;;;;;;;9.33;77.82;97184.91;5037670;28;20241;-69
2021/11/09 10:37:14;;;;;;;2.53;1.80;;;;;;;9.23;75.99;97176.22;5037935;28;20227;-68
2021/11/09 10:39:41;;;;;;;1.73;1.23;;;;;;;8.69;75.53;97188.50;5037935;28;20310;-68
2021/11/09 10:42:10;;;;;;;5.03;1.40;;;;;;;9.24;76.44;97184.91;5038294;28;20240;-68
2021/11/09 10:44:39;;;;;;;1.87;1.33;;;;;;;8.95;75.06;97181.63;5038476;28;20205;-68
2021/11/09 10:47:19;;;;;;;2.00;1.43;;;;;;;9.09;74.55;97178.50;5038096;28;20233;-69
2021/11/09 10:49:48;;;;;;;5.23;2.03;;;;;;;9.63;77.14;97171.41;5037438;28;20233;-68
2021/11/09 10:52:18;;;;;;;3.87;1.93;;;;;;;10.02;74.27;97171.00;5038061;28;20748;-69
2021/11/09 10:54:51;;;;;;;2.20;1.20;;;;;;;10.35;74.47;97165.03;5038718;28;20205;-69
2021/11/09 10:57:24;;;;;;;4.23;2.30;;;;;;;10.52;71.67;97167.63;5037095;28;20221;-69
2021/11/09 11:00:05;;;;;;;2.10;1.00;;;;;;;9.42;73.05;97172.66;5038146;28;20216;-68
2021/11/09 11:05:20;;;;;;;2.90;1.90;;;;;;;10.30;73.20;97164.66;5037446;28;20675;-69
2021/11/09 11:07:57;;;;;;;2.67;1.40;;;;;;;9.93;71.22;97164.00;5037070;28;20313;-68
2021/11/09 11:10:30;;;;;;;3.63;2.37;;;;;;;10.80;73.87;97147.22;5037934;28;20232;-69
2021/11/09 11:13:20;;;;;;;1.33;0.83;;;;;;;10.78;73.47;97151.81;5037635;28;20208;-68
2021/11/09 11:16:08;;;;;;;2.03;1.37;;;;;;;10.56;70.27;97144.44;5036625;28;20228;-69
2021/11/09 11:18:38;;;;;;;2.83;1.70;;;;;;;10.42;71.89;97145.00;5038002;28;20225;-69
2021/11/09 11:21:05;;;;;;;3.27;1.77;;;;;;;9.66;71.35;97144.81;5037541;28;20211;-70
2021/11/09 11:23:32;;;;;;;3.20;1.90;;;;;;;9.94;71.26;97149.00;5037369;28;20662;-69
2021/11/09 11:25:59;;;;;;;5.47;1.53;;;;;;;9.65;70.12;97145.78;5037019;28;20835;-69
2021/11/09 11:28:28;;;;;;;1.30;1.00;;;;;;;10.12;69.54;97141.94;5037140;28;20225;-68
2021/11/09 11:30:56;;;;;;;1.53;1.23;;;;;;;9.99;69.59;97142.38;5037192;28;21070;-68
2021/11/09 11:33:23;;;;;;;1.43;1.13;;;;;;;9.68;69.18;97142.84;5034374;28;20221;-69
2021/11/09 11:35:50;;;;;;;5.33;1.27;;;;;;;9.79;69.07;97146.09;5036702;28;20319;-69
2021/11/09 11:38:19;;;;;;;7.47;1.87;;;;;;;10.01;69.69;97137.75;5037054;28;20224;-68
2021/11/09 11:40:46;;;;;;;3.90;1.30;;;;;;;9.97;69.66;97148.75;5037705;28;20225;-69
2021/11/09 11:43:12;;;;;;;1.83;1.10;;;;;;;9.80;69.66;97141.63;5036761;28;20233;-69
2021/11/09 11:45:48;;;;;;;4.67;1.20;;;;;;;10.15;68.21;97129.31;5036535;28;20220;-69
2021/11/09 11:48:16;;;;;;;2.10;1.30;;;;;;;9.84;70.17;97130.66;5037473;28;20229;-69
2021/11/09 11:50:44;;;;;;;0.93;0.83;;;;;;;10.00;69.14;97125.56;5037672;28;20205;-68
2021/11/09 11:53:11;;;;;;;2.33;1.73;;;;;;;9.98;69.30;97137.22;5036811;28;20685;-68
2021/11/09 11:55:38;;;;;;;3.20;1.13;;;;;;;10.29;69.18;97141.94;5036115;28;20229;-68
2021/11/09 11:58:06;;;;;;;5.23;1.67;;;;;;;10.32;68.17;97130.25;5037055;28;20225;-69
2021/11/09 12:00:51;;;;;;;2.43;1.33;;;;;;;10.57;67.98;97123.19;5036660;28;20222;-69
2021/11/09 12:03:38;;;;;;;0.83;0.83;;;;;;;10.50;67.76;97126.59;5037153;28;20201;-69
2021/11/09 12:06:21;;;;;;;1.73;1.27;;;;;;;10.23;68.24;97125.91;5036222;28;20270;-69
2021/11/09 12:08:50;;;;;;;1.87;1.43;;;;;;;10.16;68.37;97127.53;5036572;28;20221;-69
2021/11/09 12:11:41;;;;;;;2.90;1.27;;;;;;;10.55;68.29;97126.97;5036636;28;20578;-69
2021/11/09 12:14:10;;;;;;;1.93;1.27;;;;;;;10.10;69.35;97123.69;5036416;28;20201;-69
2021/11/09 12:16:47;;;;;;;1.50;1.37;;;;;;;10.15;69.28;97129.31;5035629;28;20233;-68
2021/11/09 12:19:58;;;;;;;2.37;1.30;;;;;;;10.41;69.53;97127.53;5036658;28;20220;-69
2021/11/09 12:22:38;;;;;;;5.60;1.57;;;;;;;10.06;68.86;97117.06;5036476;28;20201;-68
2021/11/09 12:25:06;;;;;;;7.20;1.37;;;;;;;10.31;69.45;97120.69;5036027;28;20237;-69
2021/11/09 12:28:05;;;;;;;2.33;1.67;;;;;;;10.31;69.51;97112.78;5035664;28;20206;-69
2021/11/09 12:30:47;;;;;;;14.17;2.53;;;;;;;10.66;70.66;97102.97;5036510;28;20205;-69
2021/11/09 12:33:17;;;;;;;5.30;1.60;;;;;;;10.67;71.60;97107.28;5031293;28;20201;-69
2021/11/09 12:35:47;;;;;;;2.23;1.60;;;;;;;10.25;70.94;97119.53;5035064;28;20295;-69
2021/11/09 12:38:19;;;;;;;2.10;1.50;;;;;;;10.55;69.75;97108.50;5035917;28;20221;-69
2021/11/09 12:41:00;;;;;;;1.43;1.23;;;;;;;10.49;69.75;97114.41;5035457;28;20201;-68
2021/11/09 12:43:43;;;;;;;5.63;1.73;;;;;;;10.76;69.59;97112.44;5035707;28;20233;-68
2021/11/09 12:46:13;;;;;;;2.13;1.20;;;;;;;10.41;70.17;97111.72;5035605;28;20197;-68
2021/11/09 12:48:49;;;;;;;2.33;1.30;;;;;;;10.65;70.61;97098.69;5035521;28;21197;-67
2021/11/09 12:51:17;;;;;;;2.70;2.03;;;;;;;10.56;71.11;97108.34;5036012;28;20211;-69
2021/11/09 12:53:46;;;;;;;1.37;1.27;;;;;;;10.32;70.94;97104.72;5036130;28;20205;-68
2021/11/09 12:56:15;;;;;;;3.90;1.97;;;;;;;10.19;71.68;97104.31;5036311;28;20248;-69
2021/11/09 12:58:51;;;;;;;4.47;2.30;;;;;;;10.67;70.95;97088.84;5038926;28;21032;-68
2021/11/09 13:01:26;;;;;;;3.73;1.93;;;;;;;10.65;70.16;97096.06;5040405;28;20232;-69
2021/11/09 13:04:05;;;;;;;3.87;2.07;;;;;;;10.69;68.51;97089.47;5039930;28;20205;-69
2021/11/09 13:06:38;;;;;;;2.97;1.27;;;;;;;10.59;70.96;97086.13;5039031;28;20291;-68
2021/11/09 13:09:09;;;;;;;1.53;1.43;;;;;;;10.15;70.58;97083.72;5039542;28;20717;-68
2021/11/09 13:11:38;;;;;;;2.07;1.37;;;;;;;10.30;71.03;97077.75;5040205;28;20966;-69
2021/11/09 13:14:07;;;;;;;1.77;1.63;;;;;;;10.28;71.17;97073.59;5040077;28;20481;-68
2021/11/09 13:16:33;;;;;;;1.90;1.00;;;;;;;10.09;70.06;97069.34;5039308;28;20231;-69
2021/11/09 13:19:07;;;;;;;4.10;1.87;;;;;;;10.31;69.80;97057.47;5038994;28;20587;-68
2021/11/09 13:21:34;;;;;;;4.37;1.37;;;;;;;10.21;67.87;97064.66;5039651;28;20648;-69
2021/11/09 13:24:01;;;;;;;2.20;1.53;;;;;;;10.26;66.50;97071.13;5039315;28;20578;-69
2021/11/09 13:26:28;;;;;;;2.53;1.43;;;;;;;10.13;65.10;97073.34;5038450;28;20236;-68